Time;durP1;ratioP1;P1;durP2;ratioP2;P2;SDS_P1;SDS_P2;PMS_P1;PMS_P2;Temp;Humidity;BMP_temperature;BMP_pressure;BME280_temperature;BME280_humidity;BME280_pressure;Samples;Min_cycle;Max_cycle;Signal;HPM_P1;HPM_P2
2022/01/09 00:01:16;;;;;;;77.63;34.58;;;;;;;-4.94;100.00;97337.84;5108316;28;20054;-74
2022/01/09 00:03:42;;;;;;;73.70;33.70;;;;;;;-4.84;100.00;97332.03;5113324;28;20065;-74
2022/01/09 00:06:08;;;;;;;70.90;34.10;;;;;;;-4.86;100.00;97320.78;5111147;28;20032;-75
2022/01/09 00:08:34;;;;;;;72.13;33.85;;;;;;;-4.95;100.00;97314.06;5113588;28;21463;-75
2022/01/09 00:10:59;;;;;;;85.28;36.22;;;;;;;-5.01;100.00;97306.94;5103343;28;20028;-74
2022/01/09 00:13:25;;;;;;;79.20;35.40;;;;;;;-4.96;100.00;97301.75;5099243;28;20035;-74
2022/01/09 00:15:50;;;;;;;75.32;34.45;;;;;;;-4.96;100.00;97304.44;5108892;28;20031;-73
2022/01/09 00:18:15;;;;;;;74.63;34.20;;;;;;;-4.87;100.00;97295.16;5103254;28;20485;-73
2022/01/09 00:20:41;;;;;;;74.60;35.30;;;;;;;-4.88;100.00;97288.16;5103095;28;20032;-73
2022/01/09 00:23:07;;;;;;;79.57;37.72;;;;;;;-4.91;100.00;97276.09;5098814;28;20043;-73
2022/01/09 00:25:32;;;;;;;73.95;34.92;;;;;;;-4.88;100.00;97266.84;5108303;28;20020;-74
2022/01/09 00:27:57;;;;;;;76.15;34.90;;;;;;;-4.83;100.00;97264.38;5107715;28;20028;-73
2022/01/09 00:30:23;;;;;;;69.65;32.05;;;;;;;-4.72;100.00;97263.66;5106462;28;20770;-76
2022/01/09 00:32:50;;;;;;;73.72;35.70;;;;;;;-4.81;100.00;97267.63;5104205;28;20510;-74
2022/01/09 00:35:16;;;;;;;77.15;33.63;;;;;;;-4.79;100.00;97262.09;5112958;28;20028;-73
2022/01/09 00:37:42;;;;;;;76.05;32.67;;;;;;;-4.76;100.00;97254.44;5107936;28;20459;-73
2022/01/09 00:40:10;;;;;;;72.75;32.95;;;;;;;-4.71;100.00;97245.81;5103522;28;20030;-74
2022/01/09 00:42:35;;;;;;;66.85;30.80;;;;;;;-4.59;100.00;97246.75;5112710;28;20024;-75
2022/01/09 00:45:02;;;;;;;68.57;31.38;;;;;;;-4.70;100.00;97226.94;5106215;28;20055;-76
2022/01/09 00:47:27;;;;;;;67.10;31.58;;;;;;;-4.62;100.00;97218.66;5109033;28;20499;-75
2022/01/09 00:49:53;;;;;;;79.38;37.85;;;;;;;-4.74;100.00;97220.41;5098798;28;20024;-75
2022/01/09 00:52:18;;;;;;;96.70;40.58;;;;;;;-4.77;100.00;97206.69;5098687;28;20035;-75
2022/01/09 00:54:44;;;;;;;87.65;41.47;;;;;;;-4.77;100.00;97204.84;5096811;28;20039;-75
2022/01/09 00:57:09;;;;;;;90.55;41.55;;;;;;;-4.61;100.00;97212.31;5092247;28;20090;-78
2022/01/09 00:59:35;;;;;;;83.85;39.88;;;;;;;-4.65;100.00;97212.94;5091986;28;20027;-75
2022/01/09 01:02:00;;;;;;;94.07;42.50;;;;;;;-4.63;100.00;97214.34;5091499;28;20040;-75
2022/01/09 01:04:26;;;;;;;79.25;36.00;;;;;;;-4.62;100.00;97208.00;5104451;28;20035;-74
2022/01/09 01:06:51;;;;;;;86.63;39.08;;;;;;;-4.61;100.00;97204.31;5108041;28;20056;-76
2022/01/09 01:09:17;;;;;;;87.72;37.30;;;;;;;-4.63;100.00;97187.69;5113267;28;20023;-77
2022/01/09 01:11:43;;;;;;;91.20;38.75;;;;;;;-4.69;100.00;97182.41;5112625;27;20050;-76
2022/01/09 01:14:09;;;;;;;95.68;43.33;;;;;;;-4.70;100.00;97176.28;5112467;28;20596;-75
2022/01/09 01:16:34;;;;;;;92.20;42.70;;;;;;;-4.65;100.00;97176.41;5112587;28;20020;-76
2022/01/09 01:19:01;;;;;;;90.63;40.15;;;;;;;-4.61;100.00;97184.81;5112201;28;20055;-76
2022/01/09 01:21:27;;;;;;;91.22;40.67;;;;;;;-4.66;100.00;97185.44;5112033;28;20104;-76
2022/01/09 01:23:52;;;;;;;95.57;41.90;;;;;;;-4.70;100.00;97175.44;5103522;28;20464;-75
2022/01/09 01:26:18;;;;;;;93.18;41.72;;;;;;;-4.81;100.00;97160.97;5103988;28;20028;-76
2022/01/09 01:28:44;;;;;;;96.78;40.95;;;;;;;-4.78;100.00;97162.38;5101195;28;20024;-75
2022/01/09 01:31:12;;;;;;;91.88;39.10;;;;;;;-4.70;100.00;97146.94;5103841;28;20016;-76
2022/01/09 01:33:38;;;;;;;100.25;43.65;;;;;;;-4.71;100.00;97155.97;5108806;28;20387;-76
2022/01/09 01:36:04;;;;;;;93.70;38.78;;;;;;;-4.70;100.00;97151.44;5108784;28;20024;-76
2022/01/09 01:38:33;;;;;;;84.93;36.72;;;;;;;-4.71;100.00;97139.13;5110408;28;20487;-76
2022/01/09 01:40:58;;;;;;;76.63;35.00;;;;;;;-4.68;100.00;97120.84;5105505;28;20023;-75
2022/01/09 01:43:25;;;;;;;70.68;33.22;;;;;;;-4.64;100.00;97114.06;5098638;28;20032;-76
2022/01/09 01:45:50;;;;;;;82.03;35.92;;;;;;;-4.63;100.00;97117.50;5094914;28;20032;-77
2022/01/09 01:48:16;;;;;;;82.32;35.22;;;;;;;-4.73;100.00;97130.56;5104653;28;20081;-75
2022/01/09 01:50:42;;;;;;;84.78;36.38;;;;;;;-4.76;100.00;97137.13;5112405;28;20023;-75
2022/01/09 01:53:14;;;;;;;77.38;35.60;;;;;;;-4.75;100.00;97127.28;5112280;28;20031;-77
2022/01/09 01:55:41;;;;;;;74.72;34.60;;;;;;;-4.77;100.00;97130.19;5112709;28;20032;-75
2022/01/09 01:58:12;;;;;;;71.07;32.35;;;;;;;-4.81;100.00;97112.97;5113172;28;20019;-75
2022/01/09 02:00:40;;;;;;;86.57;36.53;;;;;;;-4.93;100.00;97115.53;5111702;28;20538;-75
2022/01/09 02:03:06;;;;;;;85.28;37.30;;;;;;;-4.92;100.00;97106.50;5112276;28;20043;-75
2022/01/09 02:05:31;;;;;;;72.10;35.40;;;;;;;-4.91;100.00;97104.66;5111847;28;20034;-76
2022/01/09 02:07:59;;;;;;;81.38;35.42;;;;;;;-4.96;100.00;97080.50;5112084;28;20016;-75
2022/01/09 02:10:26;;;;;;;77.38;34.20;;;;;;;-5.00;100.00;97076.66;5110567;28;20027;-76
2022/01/09 02:12:55;;;;;;;82.60;34.70;;;;;;;-5.14;100.00;97072.47;5111210;28;20062;-76
2022/01/09 02:15:46;;;;;;;85.85;37.33;;;;;;;-5.16;100.00;97066.53;5111756;28;20042;-76
2022/01/09 02:18:20;;;;;;;82.50;37.53;;;;;;;-5.25;100.00;97062.50;5111226;28;20046;-75
2022/01/09 02:20:46;;;;;;;86.45;37.13;;;;;;;-5.26;100.00;97050.25;5110699;28;20045;-75
2022/01/09 02:23:16;;;;;;;75.57;32.80;;;;;;;-5.12;100.00;97049.91;5111340;28;20535;-75
2022/01/09 02:25:43;;;;;;;82.53;36.20;;;;;;;-5.17;100.00;97033.78;5109928;28;20031;-76
2022/01/09 02:28:10;;;;;;;82.97;34.50;;;;;;;-5.13;100.00;97040.28;5110906;28;20015;-75
2022/01/09 02:30:37;;;;;;;82.25;35.70;;;;;;;-5.28;100.00;97037.13;5111030;28;20577;-76
2022/01/09 02:33:05;;;;;;;77.80;34.53;;;;;;;-5.24;100.00;97048.16;5111041;28;20027;-75
2022/01/09 02:35:31;;;;;;;69.88;33.88;;;;;;;-5.26;100.00;97055.56;5109782;28;20024;-76
2022/01/09 02:37:57;;;;;;;79.97;33.88;;;;;;;-5.28;100.00;97058.44;5111511;28;20028;-76
2022/01/09 02:40:23;;;;;;;78.15;34.33;;;;;;;-5.26;100.00;97044.91;5109680;28;20030;-76
2022/01/09 02:42:53;;;;;;;83.15;35.20;;;;;;;-5.24;100.00;97042.84;5110545;28;20035;-77
2022/01/09 02:45:21;;;;;;;84.03;35.25;;;;;;;-5.22;100.00;97035.44;5112612;28;20475;-76
2022/01/09 02:47:48;;;;;;;80.97;36.22;;;;;;;-5.22;100.00;97046.09;5112468;28;20104;-77
2022/01/09 02:52:52;;;;;;;81.25;34.13;;;;;;;-5.32;100.00;97013.78;5111262;28;20511;-76
2022/01/09 02:55:18;;;;;;;78.78;36.20;;;;;;;-5.41;100.00;97019.41;5109585;28;20392;-76
2022/01/09 02:57:52;;;;;;;83.90;35.60;;;;;;;-5.30;100.00;97011.75;5111454;28;20112;-77
2022/01/09 03:00:23;;;;;;;78.85;34.65;;;;;;;-5.21;100.00;97005.09;5111105;28;20052;-76
2022/01/09 03:02:49;;;;;;;81.60;34.28;;;;;;;-5.25;100.00;96999.38;5110882;28;20032;-76
2022/01/09 03:05:15;;;;;;;80.10;33.63;;;;;;;-5.19;100.00;97003.03;5111122;28;20031;-76
2022/01/09 03:07:42;;;;;;;77.60;31.45;;;;;;;-5.08;100.00;96989.00;5111222;28;20028;-76
2022/01/09 03:10:11;;;;;;;71.47;32.88;;;;;;;-5.08;100.00;96976.47;5111611;28;20028;-75
2022/01/09 03:12:37;;;;;;;72.38;32.58;;;;;;;-5.03;100.00;96987.28;5110850;28;20119;-75
2022/01/09 03:15:03;;;;;;;72.05;32.95;;;;;;;-5.01;100.00;96971.09;5110831;28;20134;-75
2022/01/09 03:17:28;;;;;;;71.57;32.47;;;;;;;-5.03;100.00;96957.16;5110888;28;20028;-76
2022/01/09 03:19:54;;;;;;;75.30;33.63;;;;;;;-5.03;100.00;96949.16;5116052;28;20024;-78
2022/01/09 03:22:19;;;;;;;73.28;32.38;;;;;;;-5.00;100.00;96954.84;5114510;28;20036;-75
2022/01/09 03:24:45;;;;;;;73.72;32.38;;;;;;;-4.91;100.00;96952.69;5115081;28;20066;-74
2022/01/09 03:27:11;;;;;;;66.80;31.42;;;;;;;-4.85;100.00;96959.81;5115307;28;20472;-76
2022/01/09 03:29:37;;;;;;;64.88;30.20;;;;;;;-4.86;100.00;96944.88;5115055;28;20480;-75
2022/01/09 03:32:03;;;;;;;70.72;32.00;;;;;;;-4.87;100.00;96953.88;5114828;28;20028;-74
2022/01/09 03:34:29;;;;;;;65.95;31.52;;;;;;;-4.91;100.00;96964.19;5115016;28;20075;-75
2022/01/09 03:36:54;;;;;;;71.13;33.17;;;;;;;-5.03;100.00;96949.97;5114571;28;20035;-75
2022/01/09 03:39:20;;;;;;;71.30;32.22;;;;;;;-4.98;100.00;96934.13;5115351;28;20472;-76
2022/01/09 03:41:45;;;;;;;63.17;28.95;;;;;;;-4.85;100.00;96943.81;5113567;28;20031;-75
2022/01/09 03:44:11;;;;;;;64.78;30.67;;;;;;;-4.88;100.00;96941.59;5114636;28;20050;-77
2022/01/09 03:46:36;;;;;;;82.72;37.33;;;;;;;-4.87;100.00;96927.22;5114617;28;20035;-75
2022/01/09 03:49:02;;;;;;;82.07;34.15;;;;;;;-4.82;100.00;96939.91;5114734;27;20081;-76
2022/01/09 03:51:32;;;;;;;83.07;37.95;;;;;;;-4.71;100.00;96934.63;5115021;28;20012;-75
2022/01/09 03:54:01;;;;;;;95.13;38.35;;;;;;;-4.78;100.00;96930.41;5115119;28;20031;-75
2022/01/09 03:56:27;;;;;;;91.10;39.42;;;;;;;-4.79;100.00;96942.91;5114708;28;20067;-76
2022/01/09 03:58:53;;;;;;;83.95;37.25;;;;;;;-4.75;100.00;96929.94;5114184;28;20084;-76
2022/01/09 04:01:18;;;;;;;91.65;39.15;;;;;;;-4.81;100.00;96934.34;5114488;28;20090;-75
2022/01/09 04:03:44;;;;;;;80.00;39.20;;;;;;;-4.89;100.00;96929.31;5114401;28;20051;-75
2022/01/09 04:06:09;;;;;;;87.97;37.08;;;;;;;-4.90;100.00;96933.00;5114306;28;20059;-76
2022/01/09 04:08:35;;;;;;;94.00;39.53;;;;;;;-4.88;100.00;96930.94;5114326;28;20092;-76
2022/01/09 04:11:03;;;;;;;97.80;38.25;;;;;;;-4.86;100.00;96923.53;5114179;28;20023;-75
2022/01/09 04:13:28;;;;;;;90.05;38.33;;;;;;;-4.91;100.00;96921.53;5114349;28;20514;-75
2022/01/09 04:15:54;;;;;;;92.70;38.22;;;;;;;-4.90;100.00;96931.16;5114186;28;20028;-76
2022/01/09 04:18:21;;;;;;;87.78;40.13;;;;;;;-4.95;100.00;96924.88;5113820;28;20055;-75
2022/01/09 04:20:48;;;;;;;81.72;35.88;;;;;;;-4.85;100.00;96919.81;5113930;28;20046;-75
2022/01/09 04:23:14;;;;;;;81.70;36.28;;;;;;;-4.83;100.00;96916.94;5112944;28;20113;-75
2022/01/09 04:25:41;;;;;;;70.47;32.20;;;;;;;-4.79;100.00;96913.59;5114647;28;20028;-74
2022/01/09 04:28:06;;;;;;;76.88;34.15;;;;;;;-4.85;100.00;96909.16;5113967;27;20028;-75
2022/01/09 04:30:32;;;;;;;79.75;37.05;;;;;;;-4.86;100.00;96907.53;5113498;28;20030;-75
2022/01/09 04:32:57;;;;;;;87.10;37.97;;;;;;;-4.88;100.00;96904.25;5113352;28;20027;-76
2022/01/09 04:35:23;;;;;;;77.82;35.05;;;;;;;-4.83;100.00;96911.59;5113335;28;20066;-76
2022/01/09 04:37:49;;;;;;;81.93;35.17;;;;;;;-4.85;100.00;96909.16;5111792;28;20503;-75
2022/01/09 04:40:17;;;;;;;88.35;36.78;;;;;;;-4.75;100.00;96912.09;5112365;28;20019;-75
2022/01/09 04:42:46;;;;;;;81.32;36.45;;;;;;;-4.71;100.00;96910.63;5111843;28;20452;-75
2022/01/09 04:45:14;;;;;;;76.28;34.67;;;;;;;-4.79;100.00;96905.59;5113398;28;20019;-76
2022/01/09 04:47:43;;;;;;;79.05;33.03;;;;;;;-4.80;100.00;96905.81;5113310;28;20403;-76
2022/01/09 04:50:13;;;;;;;81.53;34.85;;;;;;;-4.79;100.00;96897.59;5113186;28;20020;-75
2022/01/09 04:52:39;;;;;;;81.88;33.90;;;;;;;-4.88;100.00;96904.25;5113175;28;20004;-77
2022/01/09 04:55:05;;;;;;;76.53;34.25;;;;;;;-4.82;100.00;96900.69;5111805;28;20072;-75
2022/01/09 04:57:31;;;;;;;73.63;34.42;;;;;;;-4.76;100.00;96891.81;5112767;28;20043;-75
2022/01/09 04:59:56;;;;;;;73.57;33.22;;;;;;;-4.78;100.00;96875.22;5113155;28;20032;-75
2022/01/09 05:02:21;;;;;;;70.70;31.77;;;;;;;-4.78;100.00;96869.91;5113163;28;20030;-75
2022/01/09 05:04:47;;;;;;;72.75;34.17;;;;;;;-4.87;100.00;96863.25;5113120;28;20570;-76
2022/01/09 05:07:12;;;;;;;67.40;31.67;;;;;;;-4.84;100.00;96859.31;5112741;28;20016;-75
2022/01/09 05:09:38;;;;;;;71.57;31.95;;;;;;;-4.82;100.00;96850.03;5113649;28;20029;-77
2022/01/09 05:12:03;;;;;;;75.78;33.50;;;;;;;-4.94;100.00;96852.66;5113634;28;20032;-76
2022/01/09 05:14:29;;;;;;;70.68;32.90;;;;;;;-4.97;100.00;96855.78;5113685;28;20453;-74
2022/01/09 05:16:54;;;;;;;77.85;35.40;;;;;;;-4.97;100.00;96846.97;5119670;28;20115;-75
2022/01/09 05:19:28;;;;;;;78.10;33.80;;;;;;;-4.94;100.00;96835.84;5114012;28;20392;-75
2022/01/09 05:21:56;;;;;;;66.47;32.10;;;;;;;-4.84;100.00;96846.81;5114065;28;20034;-76
2022/01/09 05:24:22;;;;;;;81.28;35.50;;;;;;;-4.76;100.00;96848.34;5114331;28;20024;-76
2022/01/09 05:26:48;;;;;;;80.90;35.95;;;;;;;-4.77;100.00;96855.53;5114459;28;20035;-77
2022/01/09 05:29:13;;;;;;;77.30;33.67;;;;;;;-4.71;100.00;96851.13;5109535;28;20130;-77
2022/01/09 05:31:39;;;;;;;73.30;33.20;;;;;;;-4.61;100.00;96854.09;5092113;28;20032;-76
2022/01/09 05:34:05;;;;;;;70.90;33.60;;;;;;;-4.67;100.00;96855.81;5093996;28;20058;-75
2022/01/09 05:36:30;;;;;;;76.82;34.03;;;;;;;-4.57;100.00;96852.56;5093574;28;20053;-76
2022/01/09 05:38:56;;;;;;;72.30;33.78;;;;;;;-4.66;100.00;96844.09;5093595;28;20024;-76
2022/01/09 05:41:21;;;;;;;76.82;34.40;;;;;;;-4.63;100.00;96834.81;5094903;28;20039;-75
2022/01/09 05:43:47;;;;;;;70.57;32.85;;;;;;;-4.60;100.00;96837.84;5111937;28;20509;-75
2022/01/09 05:46:13;;;;;;;70.97;34.67;;;;;;;-4.67;100.00;96836.31;5104930;28;20027;-75
2022/01/09 05:48:38;;;;;;;74.10;33.47;;;;;;;-4.74;100.00;96832.94;5091627;28;20057;-75
2022/01/09 05:51:03;;;;;;;73.50;32.70;;;;;;;-4.75;100.00;96826.78;5091674;28;20111;-75
2022/01/09 05:53:29;;;;;;;72.13;30.73;;;;;;;-4.62;100.00;96831.09;5091431;28;20388;-77
2022/01/09 05:55:54;;;;;;;81.43;34.67;;;;;;;-4.65;100.00;96823.56;5091036;28;20078;-76
2022/01/09 05:58:20;;;;;;;71.80;32.08;;;;;;;-4.75;100.00;96821.44;5097186;28;20019;-76
2022/01/09 06:00:45;;;;;;;67.32;30.13;;;;;;;-4.65;100.00;96826.22;5111682;28;20024;-75
2022/01/09 06:03:11;;;;;;;70.20;29.98;;;;;;;-4.57;100.00;96825.91;5111553;28;20043;-75
2022/01/09 06:05:36;;;;;;;73.03;30.42;;;;;;;-4.52;100.00;96824.19;5111747;28;20097;-76
2022/01/09 06:08:02;;;;;;;67.22;30.20;;;;;;;-4.61;100.00;96808.75;5111641;28;20023;-75
2022/01/09 06:10:27;;;;;;;70.82;32.10;;;;;;;-4.71;100.00;96797.81;5111828;28;20114;-76
2022/01/09 06:12:53;;;;;;;63.50;31.65;;;;;;;-4.55;100.00;96815.84;5111345;28;20034;-77
2022/01/09 06:15:18;;;;;;;72.82;31.35;;;;;;;-4.57;100.00;96805.38;5111781;28;20100;-75
2022/01/09 06:17:44;;;;;;;67.25;33.20;;;;;;;-4.57;100.00;96824.03;5111581;28;20027;-76
2022/01/09 06:20:12;;;;;;;72.00;32.70;;;;;;;-4.46;100.00;96819.78;5111258;28;20023;-75
2022/01/09 06:22:39;;;;;;;67.90;30.40;;;;;;;-4.42;100.00;96813.75;5111073;28;21555;-75
2022/01/09 06:25:05;;;;;;;75.88;32.72;;;;;;;-4.43;100.00;96822.00;5111271;28;20095;-76
2022/01/09 06:27:31;;;;;;;69.30;30.45;;;;;;;-4.52;100.00;96824.19;5108683;28;20012;-77
2022/01/09 06:29:56;;;;;;;63.78;31.15;;;;;;;-4.43;100.00;96828.16;5109759;28;20042;-77
2022/01/09 06:32:22;;;;;;;61.70;29.60;;;;;;;-4.54;100.00;96826.25;5110116;28;20062;-77
2022/01/09 06:34:47;;;;;;;63.92;30.15;;;;;;;-4.57;100.00;96818.72;5104822;28;20070;-76
2022/01/09 06:37:13;;;;;;;62.13;29.05;;;;;;;-4.66;100.00;96806.75;5099161;28;20468;-76
2022/01/09 06:39:40;;;;;;;64.43;30.95;;;;;;;-4.53;100.00;96827.91;5112093;28;20133;-76
2022/01/09 06:42:05;;;;;;;67.93;29.90;;;;;;;-4.52;100.00;96831.38;5111783;28;20525;-75
2022/01/09 06:44:31;;;;;;;68.63;31.15;;;;;;;-4.53;100.00;96814.56;5112054;28;20020;-75
2022/01/09 06:46:56;;;;;;;66.90;30.25;;;;;;;-4.55;100.00;96803.31;5111623;28;20032;-76
2022/01/09 06:49:21;;;;;;;59.22;30.88;;;;;;;-4.47;100.00;96794.97;5110512;28;20072;-76
2022/01/09 06:51:47;;;;;;;68.82;29.13;;;;;;;-4.40;100.00;96797.53;5110327;28;20024;-76
2022/01/09 06:54:13;;;;;;;63.50;29.08;;;;;;;-4.64;100.00;96804.69;5110852;28;20527;-75
2022/01/09 06:56:39;;;;;;;60.53;28.88;;;;;;;-4.67;100.00;96805.16;5113157;28;20040;-74
2022/01/09 06:59:05;;;;;;;63.60;30.05;;;;;;;-4.66;100.00;96800.59;5115883;28;20091;-76
2022/01/09 07:01:30;;;;;;;66.28;31.27;;;;;;;-4.77;100.00;96788.06;5118016;28;20098;-76
2022/01/09 07:03:55;;;;;;;66.35;29.02;;;;;;;-4.64;100.00;96788.69;5115244;28;20028;-76
2022/01/09 07:06:21;;;;;;;63.00;29.63;;;;;;;-4.58;100.00;96793.09;5115322;28;20042;-77
2022/01/09 07:08:46;;;;;;;68.07;32.20;;;;;;;-4.64;100.00;96787.88;5116058;28;20016;-75
2022/01/09 07:11:12;;;;;;;61.67;30.63;;;;;;;-4.68;100.00;96784.84;5123026;28;20020;-75
2022/01/09 07:13:37;;;;;;;63.65;30.58;;;;;;;-4.54;100.00;96794.25;5115991;28;20105;-76
2022/01/09 07:16:03;;;;;;;67.75;30.52;;;;;;;-4.46;100.00;96791.25;5114752;27;20034;-75
2022/01/09 07:18:28;;;;;;;78.07;35.08;;;;;;;-4.29;100.00;96788.72;5114778;28;20034;-77
2022/01/09 07:20:54;;;;;;;65.55;30.50;;;;;;;-4.26;100.00;96788.25;5114720;28;20015;-76
2022/01/09 07:23:19;;;;;;;59.17;27.65;;;;;;;-4.07;100.00;96783.66;5114826;28;20459;-74
2022/01/09 07:25:45;;;;;;;60.15;30.08;;;;;;;-4.13;100.00;96773.88;5114900;28;20019;-76
2022/01/09 07:28:10;;;;;;;60.00;28.35;;;;;;;-4.07;100.00;96783.66;5114515;28;20056;-75
2022/01/09 07:30:36;;;;;;;61.55;29.30;;;;;;;-3.95;100.00;96781.78;5113410;28;20023;-76
2022/01/09 07:33:04;;;;;;;66.47;32.08;;;;;;;-3.80;100.00;96785.59;5114396;28;20027;-75
2022/01/09 07:35:30;;;;;;;65.72;31.35;;;;;;;-3.75;100.00;96786.75;5114530;28;20031;-76
2022/01/09 07:37:56;;;;;;;60.83;30.23;;;;;;;-3.68;100.00;96790.13;5114950;28;20041;-77
2022/01/09 07:40:21;;;;;;;60.85;29.67;;;;;;;-3.81;100.00;96793.84;5115102;28;20044;-75
2022/01/09 07:42:47;;;;;;;66.93;30.13;;;;;;;-3.72;100.00;96784.41;5114816;28;20026;-76
2022/01/09 07:45:15;;;;;;;65.68;30.70;;;;;;;-3.73;100.00;96782.81;5114369;28;20012;-76
2022/01/09 07:47:40;;;;;;;64.32;31.10;;;;;;;-3.55;100.00;96780.00;5114336;28;20023;-77
2022/01/09 07:50:10;;;;;;;70.13;32.90;;;;;;;-3.58;100.00;96785.81;5114552;28;20076;-76
2022/01/09 07:52:36;;;;;;;65.18;32.80;;;;;;;-3.60;100.00;96779.88;5114405;28;20022;-76
2022/01/09 07:55:04;;;;;;;67.15;32.28;;;;;;;-3.54;100.00;96788.84;5113183;28;20054;-75
2022/01/09 07:57:29;;;;;;;66.53;29.67;;;;;;;-3.50;100.00;96785.44;5116285;27;20495;-76
2022/01/09 07:59:56;;;;;;;71.38;31.30;;;;;;;-3.49;100.00;96776.38;5114644;28;20028;-77
2022/01/09 08:02:22;;;;;;;64.05;30.52;;;;;;;-3.43;100.00;96770.09;5114362;27;20039;-76
2022/01/09 08:04:48;;;;;;;62.75;30.15;;;;;;;-3.45;100.00;96761.50;5114102;28;20028;-75
2022/01/09 08:07:13;;;;;;;58.70;28.00;;;;;;;-3.24;100.00;96765.38;5114087;28;20031;-73
2022/01/09 08:09:39;;;;;;;72.22;31.08;;;;;;;-3.41;100.00;96751.94;5113678;28;20456;-75
2022/01/09 08:12:06;;;;;;;61.40;28.58;;;;;;;-3.37;100.00;96753.09;5113932;28;20036;-77
2022/01/09 08:14:31;;;;;;;65.78;29.30;;;;;;;-3.43;100.00;96740.69;5113986;28;20035;-75
2022/01/09 08:16:59;;;;;;;69.22;30.25;;;;;;;-3.46;100.00;96749.19;5113890;28;20114;-76
2022/01/09 08:19:24;;;;;;;67.43;31.83;;;;;;;-3.55;100.00;96745.25;5114329;28;20486;-75
2022/01/09 08:21:50;;;;;;;62.17;30.45;;;;;;;-3.59;100.00;96751.31;5113710;28;20020;-76
2022/01/09 08:24:15;;;;;;;69.50;32.53;;;;;;;-3.55;100.00;96755.94;5112538;28;20063;-76
2022/01/09 08:26:41;;;;;;;69.03;32.15;;;;;;;-3.44;100.00;96752.44;5113975;28;20023;-77
2022/01/09 08:29:07;;;;;;;69.63;33.70;;;;;;;-3.25;100.00;96756.56;5113812;28;20024;-76
2022/01/09 08:31:32;;;;;;;68.38;32.60;;;;;;;-3.16;100.00;96756.19;5112958;28;20144;-76
2022/01/09 08:33:57;;;;;;;71.00;32.13;;;;;;;-3.09;100.00;96763.00;5114985;28;20023;-76
2022/01/09 08:36:23;;;;;;;67.22;32.03;;;;;;;-3.06;100.00;96749.16;5114003;28;20032;-76
2022/01/09 08:38:48;;;;;;;70.00;33.40;;;;;;;-3.06;100.00;96753.69;5113809;28;20468;-77
2022/01/09 08:41:14;;;;;;;65.43;31.52;;;;;;;-2.94;100.00;96744.56;5114197;28;20114;-75
2022/01/09 08:43:39;;;;;;;62.55;30.95;;;;;;;-2.91;100.00;96745.94;5103757;28;20035;-75
2022/01/09 08:46:05;;;;;;;74.13;35.97;;;;;;;-2.81;100.00;96741.59;5093994;28;20043;-77
2022/01/09 08:48:31;;;;;;;64.22;31.30;;;;;;;-2.68;100.00;96728.97;5098490;28;20098;-76
2022/01/09 08:50:56;;;;;;;68.25;31.42;;;;;;;-2.64;100.00;96744.28;5113426;27;20031;-77
2022/01/09 08:53:22;;;;;;;66.88;31.58;;;;;;;-2.69;100.00;96740.72;5115867;28;20472;-75
2022/01/09 08:55:47;;;;;;;61.17;31.30;;;;;;;-2.75;100.00;96740.63;5112668;28;20408;-74
2022/01/09 08:58:12;;;;;;;64.63;32.40;;;;;;;-2.69;100.00;96732.72;5111834;28;20077;-76
2022/01/09 09:00:38;;;;;;;58.40;31.15;;;;;;;-2.68;100.00;96739.66;5107785;28;20024;-76
2022/01/09 09:03:04;;;;;;;57.80;30.58;;;;;;;-2.73;100.00;96729.69;5092716;28;20031;-76
2022/01/09 09:05:30;;;;;;;62.05;30.77;;;;;;;-2.47;100.00;96737.06;5095207;28;20020;-76
2022/01/09 09:07:57;;;;;;;61.88;31.35;;;;;;;-2.55;100.00;96745.53;5094407;28;20024;-77
2022/01/09 09:10:23;;;;;;;63.22;30.45;;;;;;;-2.53;100.00;96734.56;5092807;28;20020;-78
2022/01/09 09:12:48;;;;;;;59.83;30.42;;;;;;;-2.52;100.00;96738.88;5092249;28;20032;-76
2022/01/09 09:15:14;;;;;;;59.45;31.15;;;;;;;-2.60;100.00;96726.69;5100173;28;20089;-75
2022/01/09 09:17:39;;;;;;;62.47;30.75;;;;;;;-2.63;100.00;96721.81;5112790;28;20064;-75
2022/01/09 09:20:08;;;;;;;62.67;30.65;;;;;;;-2.37;100.00;96718.50;5112804;28;20023;-77
2022/01/09 09:22:35;;;;;;;62.63;32.50;;;;;;;-2.29;100.00;96734.16;5110647;28;20036;-75
2022/01/09 09:25:01;;;;;;;65.88;33.88;;;;;;;-2.01;100.00;96735.94;5112965;28;20093;-78
2022/01/09 09:27:30;;;;;;;56.55;29.27;;;;;;;-1.75;100.00;96740.56;5112134;28;20024;-74
2022/01/09 09:29:58;;;;;;;63.70;32.17;;;;;;;-1.63;100.00;96727.84;5112498;28;20360;-74
2022/01/09 09:32:23;;;;;;;60.80;27.67;;;;;;;-1.58;100.00;96729.81;5113040;28;20020;-74
2022/01/09 09:34:48;;;;;;;59.45;30.25;;;;;;;-1.52;100.00;96728.00;5113164;28;20032;-74
2022/01/09 09:37:14;;;;;;;63.20;32.20;;;;;;;-1.60;100.00;96726.56;5106734;28;20069;-73
2022/01/09 09:39:39;;;;;;;63.72;32.55;;;;;;;-1.41;100.00;96719.03;5092921;28;20063;-76
2022/01/09 09:42:05;;;;;;;62.50;32.92;;;;;;;-1.31;100.00;96722.63;5094474;28;20906;-77
2022/01/09 09:44:30;;;;;;;64.18;31.80;;;;;;;-1.39;100.00;96715.03;5095675;28;20098;-77
2022/01/09 09:46:56;;;;;;;59.30;30.92;;;;;;;-1.29;100.00;96715.16;5099759;28;20027;-76
2022/01/09 09:49:22;;;;;;;69.18;34.17;;;;;;;-1.08;100.00;96718.88;5113399;28;20026;-77
2022/01/09 09:51:47;;;;;;;72.32;35.72;;;;;;;-1.05;100.00;96725.59;5110921;28;20399;-75
2022/01/09 09:54:13;;;;;;;70.28;36.83;;;;;;;-1.10;100.00;96716.41;5104170;28;20031;-76
2022/01/09 09:56:38;;;;;;;83.18;37.67;;;;;;;-0.89;100.00;96708.59;5099283;28;20037;-75
2022/01/09 09:59:04;;;;;;;72.38;36.88;;;;;;;-0.59;100.00;96711.56;5102983;28;20754;-75
2022/01/09 10:01:33;;;;;;;82.13;37.70;;;;;;;-0.38;100.00;96718.72;5091566;28;20091;-75
2022/01/09 10:04:05;;;;;;;84.97;40.75;;;;;;;-0.01;99.57;96716.84;5091157;28;20032;-74
2022/01/09 10:06:47;;;;;;;80.38;37.63;;;;;;;0.22;97.01;96714.84;5101724;28;20024;-73
2022/01/09 10:09:21;;;;;;;85.70;39.15;;;;;;;-0.19;98.64;96711.09;5105899;28;20142;-74
2022/01/09 10:11:54;;;;;;;84.55;38.92;;;;;;;-0.57;99.61;96696.00;5102801;28;20361;-74
2022/01/09 10:14:35;;;;;;;85.38;40.30;;;;;;;-0.59;100.00;96682.03;5111706;28;20030;-74
2022/01/09 10:17:19;;;;;;;88.35;40.03;;;;;;;-1.01;100.00;96697.22;5108492;28;20664;-71
2022/01/09 10:20:00;;;;;;;96.63;40.55;;;;;;;-0.98;100.00;96702.06;5101449;28;20543;-75
2022/01/09 10:22:36;;;;;;;89.63;40.88;;;;;;;-0.76;100.00;96697.44;5107397;28;20108;-74
2022/01/09 10:25:37;;;;;;;78.97;35.83;;;;;;;-0.63;100.00;96699.72;5109225;28;20016;-75
2022/01/09 10:28:17;;;;;;;80.60;36.50;;;;;;;-0.51;100.00;96691.50;5098607;28;20043;-74
2022/01/09 10:30:48;;;;;;;84.13;37.40;;;;;;;-0.31;100.00;96703.19;5104321;28;20024;-75
2022/01/09 10:33:18;;;;;;;84.88;40.35;;;;;;;-0.10;100.00;96701.47;5108123;28;20042;-74
2022/01/09 10:35:46;;;;;;;79.28;34.88;;;;;;;0.23;98.69;96705.69;5108681;28;20047;-75
2022/01/09 10:38:13;;;;;;;75.70;35.60;;;;;;;0.17;96.36;96698.66;5108774;28;20023;-76
2022/01/09 10:40:41;;;;;;;77.75;36.17;;;;;;;0.34;96.77;96692.06;5107544;28;20467;-75
2022/01/09 10:43:09;;;;;;;74.38;33.85;;;;;;;0.54;94.64;96691.31;5108811;28;20088;-76
2022/01/09 10:45:38;;;;;;;69.90;34.92;;;;;;;0.41;94.03;96672.97;5109831;28;20023;-75
2022/01/09 10:48:11;;;;;;;73.25;34.05;;;;;;;0.36;94.91;96686.41;5108410;28;20020;-76
2022/01/09 10:50:39;;;;;;;77.95;34.33;;;;;;;0.46;94.14;96683.78;5106739;28;20023;-74
2022/01/09 10:53:17;;;;;;;78.38;33.42;;;;;;;0.46;94.37;96689.16;5108530;28;20053;-77
2022/01/09 10:56:06;;;;;;;70.47;32.95;;;;;;;0.64;93.65;96672.53;5107249;28;20048;-75
2022/01/09 10:58:42;;;;;;;58.28;28.95;;;;;;;1.31;87.52;96682.38;5098913;28;20043;-76
2022/01/09 11:01:13;;;;;;;68.45;30.45;;;;;;;1.12;88.83;96676.72;5105800;28;20034;-77
2022/01/09 11:03:41;;;;;;;63.38;31.08;;;;;;;2.00;86.42;96686.16;5107980;28;20028;-75
2022/01/09 11:06:08;;;;;;;66.32;31.50;;;;;;;2.70;81.18;96681.59;5102652;28;20087;-76
2022/01/09 11:08:34;;;;;;;58.22;29.45;;;;;;;3.75;76.28;96666.63;5105876;28;20380;-75
2022/01/09 11:11:01;;;;;;;57.15;29.30;;;;;;;3.70;76.55;96660.44;5107293;28;20034;-76